Time;durP1;ratioP1;P1;durP2;ratioP2;P2;SDS_P1;SDS_P2;PMS_P1;PMS_P2;Temp;Humidity;BMP_temperature;BMP_pressure;BME280_temperature;BME280_humidity;BME280_pressure;Samples;Min_cycle;Max_cycle;Signal;HPM_P1;HPM_P2
2023/06/22 03:05:57;;;;;;;8.32;5.57;;;;;;;14.87;100.00;100816.75;6201559;23;20028;-96
2023/06/22 03:08:22;;;;;;;8.90;6.97;;;;;;;14.89;100.00;100814.91;6312377;22;19997;-96
2023/06/22 03:13:40;;;;;;;8.05;6.30;;;;;;;15.03;100.00;100820.91;6140985;23;20007;-95
2023/06/22 05:02:12;;;;;;;13.18;9.73;;;;;;;14.93;100.00;100813.75;6163027;23;19997;-95
2023/06/22 05:15:12;;;;;;;12.30;9.07;;;;;;;15.23;100.00;100815.13;6163734;22;20025;-96
2023/06/22 05:17:42;;;;;;;18.67;11.50;;;;;;;15.36;100.00;100815.94;6274604;22;20009;-96
2023/06/22 05:20:09;;;;;;;17.95;11.88;;;;;;;15.44;100.00;100806.75;6273521;22;20039;-96
2023/06/22 06:14:23;;;;;;;11.80;9.57;;;;;;;18.90;100.00;100837.78;6169968;23;20013;-95
2023/06/22 06:16:51;;;;;;;12.55;8.68;;;;;;;19.86;93.82;100834.53;6310632;22;20001;-96
2023/06/22 06:19:16;;;;;;;11.82;9.48;;;;;;;20.04;89.55;100832.03;6206799;23;19989;-96
2023/06/22 06:21:45;;;;;;;13.15;9.50;;;;;;;20.57;84.26;100843.00;6206347;22;20031;-96
2023/06/22 06:24:26;;;;;;;11.25;8.85;;;;;;;23.00;71.26;100847.16;6310091;22;19989;-96
2023/06/22 06:26:52;;;;;;;10.13;8.00;;;;;;;24.40;63.36;100849.91;6311767;22;19989;-96
2023/06/22 06:29:23;;;;;;;11.30;7.22;;;;;;;25.59;56.85;100847.06;6197829;22;20031;-96
2023/06/22 06:31:49;;;;;;;7.85;6.60;;;;;;;26.57;53.09;100844.56;6194259;22;20041;-95
2023/06/22 06:42:00;;;;;;;7.00;4.25;;;;;;;28.78;45.20;100859.69;6194296;23;20037;-96
2023/06/22 06:44:25;;;;;;;4.53;2.92;;;;;;;28.47;45.69;100858.31;6296452;22;20028;-94
2023/06/22 06:46:51;;;;;;;4.47;2.80;;;;;;;28.73;45.13;100867.44;6289461;22;20079;-95
2023/06/22 06:49:19;;;;;;;5.13;2.80;;;;;;;28.53;45.11;100862.00;6284846;22;20005;-95
2023/06/22 06:51:45;;;;;;;4.45;2.63;;;;;;;29.81;41.98;100854.25;6288776;22;20059;-95
2023/06/22 06:54:11;;;;;;;4.70;2.50;;;;;;;30.83;39.32;100860.03;6267250;22;20002;-96
2023/06/22 06:56:36;;;;;;;4.38;2.22;;;;;;;30.79;39.86;100866.78;6273046;22;19997;-96
2023/06/22 06:59:05;;;;;;;4.80;2.40;;;;;;;30.53;41.10;100851.72;6280520;22;19994;-96
2023/06/22 07:01:33;;;;;;;2.33;2.00;;;;;;;29.63;42.28;100857.50;6264502;22;20017;-95
2023/06/22 07:04:01;;;;;;;2.28;1.50;;;;;;;30.57;40.94;100859.06;6256094;22;20010;-96
2023/06/22 07:06:41;;;;;;;3.50;2.20;;;;;;;30.92;39.90;100858.75;6265770;22;20116;-96
2023/06/22 07:09:10;;;;;;;6.60;2.00;;;;;;;29.99;41.26;100861.59;6252854;22;20017;-96
2023/06/22 07:11:37;;;;;;;4.82;2.22;;;;;;;30.03;40.44;100862.84;6259023;22;20057;-96
2023/06/22 07:19:12;;;;;;;5.97;3.38;;;;;;;29.05;44.82;100850.00;6118872;23;20125;-96
2023/06/22 07:21:39;;;;;;;4.82;3.22;;;;;;;29.69;43.92;100861.22;6287795;22;20036;-95
2023/06/22 07:29:23;;;;;;;4.70;2.50;;;;;;;28.78;44.75;100849.06;6123661;23;20036;-95
2023/06/22 07:34:24;;;;;;;6.47;3.17;;;;;;;28.93;44.89;100844.44;6138149;23;20028;-95
2023/06/22 07:36:50;;;;;;;8.35;4.00;;;;;;;27.57;47.34;100846.56;6295354;22;20037;-95
2023/06/22 07:39:15;;;;;;;7.10;4.00;;;;;;;27.79;47.00;100838.59;6295135;22;20033;-96
2023/06/22 07:44:37;;;;;;;4.38;3.30;;;;;;;28.26;46.47;100842.41;6167902;23;20005;-96
2023/06/22 07:47:35;;;;;;;11.35;3.90;;;;;;;27.53;47.51;100837.31;6192043;22;20017;-96
2023/06/22 07:50:01;;;;;;;6.90;2.72;;;;;;;27.51;47.70;100844.69;6296727;22;20013;-95
2023/06/22 07:52:31;;;;;;;4.75;3.13;;;;;;;27.55;47.56;100832.66;6196768;23;20001;-96
2023/06/22 07:55:38;;;;;;;6.13;3.10;;;;;;;27.96;46.45;100834.66;6302067;22;20081;-96
2023/06/22 07:58:08;;;;;;;4.57;2.70;;;;;;;28.17;45.71;100825.84;6284941;22;20044;-96
2023/06/22 08:00:34;;;;;;;4.00;2.30;;;;;;;28.17;46.33;100831.16;6298599;22;20017;-95
2023/06/22 08:03:05;;;;;;;7.20;2.90;;;;;;;28.29;45.60;100834.09;6276344;22;20013;-95
2023/06/22 08:05:32;;;;;;;;;;;;;;;29.09;43.98;100845.09;6248196;22;20488;-95
2023/06/22 08:08:00;;;;;;;4.15;2.53;;;;;;;28.91;43.98;100840.31;6276620;22;19924;-96
2023/06/22 08:14:36;;;;;;;4.30;2.88;;;;;;;28.99;43.34;100850.78;6209242;23;20032;-96
2023/06/22 08:36:10;;;;;;;9.93;2.78;;;;;;;29.16;41.87;100845.94;6131706;23;20044;-96
2023/06/22 08:38:44;;;;;;;9.52;2.40;;;;;;;29.51;42.65;100848.50;6313081;22;20013;-96
2023/06/22 08:43:46;;;;;;;4.55;3.03;;;;;;;29.63;41.78;100855.66;6154830;22;20027;-96
2023/06/22 08:54:32;;;;;;;6.30;3.15;;;;;;;30.05;39.95;100850.16;6111378;22;20022;-95
2023/06/22 08:59:38;;;;;;;11.07;3.30;;;;;;;30.53;40.18;100852.50;6146387;22;20018;-96
2023/06/22 09:26:09;;;;;;;6.25;3.17;;;;;;;31.42;38.16;100866.13;6162354;23;19997;-96
2023/06/22 10:17:07;;;;;;;6.00;2.38;;;;;;;30.45;38.69;100871.41;6154910;23;20036;-96
2023/06/22 12:55:51;;;;;;;2.50;1.30;;;;;;;34.79;31.28;100842.22;6164963;23;20008;31
2023/06/22 13:03:29;;;;;;;7.00;1.60;;;;;;;33.60;31.57;100842.56;6176150;23;20009;-96
2023/06/22 13:20:07;;;;;;;1.95;1.15;;;;;;;32.26;33.51;100827.41;6185888;23;20204;-96
2023/06/22 13:22:43;;;;;;;2.72;1.60;;;;;;;32.08;35.28;100838.09;6314812;22;20020;-96
2023/06/22 13:25:12;;;;;;;5.40;1.77;;;;;;;31.38;36.65;100836.34;6209356;22;20008;-96
2023/06/22 13:27:46;;;;;;;3.05;1.60;;;;;;;31.19;37.47;100832.78;6313211;22;20009;-96
2023/06/22 13:32:41;;;;;;;4.28;2.13;;;;;;;30.81;37.47;100838.91;6205855;23;20017;-96
2023/06/22 13:35:57;;;;;;;2.35;1.38;;;;;;;31.30;37.02;100831.28;6311826;22;20009;-95
2023/06/22 13:38:23;;;;;;;3.20;1.58;;;;;;;31.56;35.97;100841.78;6265175;22;20009;-95
2023/06/22 13:40:50;;;;;;;5.50;1.45;;;;;;;31.85;35.99;100841.34;6258763;22;20001;-96
2023/06/22 13:43:22;;;;;;;5.47;1.88;;;;;;;31.35;36.69;100837.59;6178267;23;20016;-96
2023/06/22 13:48:29;;;;;;;3.92;2.00;;;;;;;30.92;36.43;100848.09;6181223;23;20989;-96
2023/06/22 13:51:03;;;;;;;6.53;1.88;;;;;;;30.53;37.70;100846.38;6290015;22;20013;-96
2023/06/22 13:53:32;;;;;;;3.53;1.60;;;;;;;30.67;38.12;100846.13;6125626;22;1494134;-95
2023/06/22 14:01:45;;;;;;;5.70;1.70;;;;;;;29.55;39.57;100849.69;6194402;23;20028;-95
2023/06/22 14:04:11;;;;;;;5.88;1.58;;;;;;;29.11;39.24;100848.41;6277868;22;20025;-96
2023/06/22 14:06:37;;;;;;;8.95;1.73;;;;;;;29.18;40.53;100850.03;6169977;23;19985;-96
2023/06/22 14:09:07;;;;;;;5.07;1.70;;;;;;;28.67;40.37;100846.97;6271142;22;20077;-96
2023/06/22 14:11:34;;;;;;;1.70;1.40;;;;;;;29.10;40.17;100852.91;6171511;22;20021;-96
2023/06/22 14:14:03;;;;;;;3.20;1.70;;;;;;;29.03;41.18;100847.53;6269725;22;20033;-96
2023/06/22 14:19:41;;;;;;;4.60;1.70;;;;;;;28.39;41.84;100855.78;6252024;23;20015;-96
2023/06/22 14:25:15;;;;;;;3.05;1.52;;;;;;;28.36;42.38;100856.16;6289389;22;20048;-96
2023/06/22 14:27:41;;;;;;;2.50;1.65;;;;;;;28.72;41.30;100857.81;6302820;22;20067;-96
2023/06/22 14:30:07;;;;;;;3.70;1.70;;;;;;;28.81;40.40;100861.97;6301927;22;20009;-96
2023/06/22 14:32:32;;;;;;;4.32;1.77;;;;;;;28.62;40.90;100852.06;6300350;22;20095;-96
2023/06/22 14:34:59;;;;;;;3.75;1.83;;;;;;;28.55;40.82;100852.81;6305272;22;20005;-95
2023/06/22 14:37:27;;;;;;;3.38;1.77;;;;;;;28.76;40.24;100862.53;6305376;22;20009;-96
2023/06/22 14:39:54;;;;;;;3.15;1.50;;;;;;;28.64;39.88;100863.31;6300694;22;20361;-96
2023/06/22 14:42:21;;;;;;;3.60;1.83;;;;;;;28.57;40.03;100848.16;6302884;22;20001;-96
2023/06/22 14:48:29;;;;;;;3.65;1.63;;;;;;;28.06;41.61;100850.25;6268514;23;20074;-96
2023/06/22 14:50:55;;;;;;;3.22;1.60;;;;;;;28.16;40.26;100856.84;6295582;22;20138;-96
2023/06/22 14:56:34;;;;;;;4.32;1.67;;;;;;;27.79;41.54;100847.34;6194457;22;20024;-96
2023/06/22 14:59:05;;;;;;;3.42;1.55;;;;;;;27.80;41.45;100856.13;6277172;22;19985;-96
2023/06/22 15:04:09;;;;;;;2.25;1.50;;;;;;;27.19;44.15;100851.25;6199149;23;20019;-96
2023/06/22 15:06:38;;;;;;;2.30;1.55;;;;;;;26.97;43.68;100867.09;6301916;22;20361;-96
2023/06/22 15:09:03;;;;;;;7.60;1.48;;;;;;;26.85;42.60;100864.09;6174260;23;20021;-96
2023/06/22 15:11:29;;;;;;;4.03;1.80;;;;;;;26.86;42.36;100856.97;6278065;22;20040;-96
2023/06/22 15:14:00;;;;;;;6.60;1.85;;;;;;;27.08;42.91;100866.59;6281523;22;19990;-96
2023/06/22 15:16:26;;;;;;;2.72;1.30;;;;;;;27.24;41.36;100868.25;6274646;22;20069;-96
2023/06/22 15:18:51;;;;;;;3.33;1.40;;;;;;;27.08;42.27;100863.13;6168030;23;20016;-96
2023/06/22 15:21:17;;;;;;;4.28;1.60;;;;;;;26.56;42.35;100861.47;6271030;22;20068;-96
2023/06/22 15:23:43;;;;;;;3.53;1.50;;;;;;;26.56;42.12;100866.78;6270633;22;20005;-96
2023/06/22 15:26:09;;;;;;;3.13;1.50;;;;;;;26.62;42.41;100868.66;6269879;22;20088;-96
2023/06/22 15:28:37;;;;;;;5.70;1.63;;;;;;;26.52;42.95;100862.81;6274782;22;20081;-96
2023/06/22 15:31:04;;;;;;;2.10;1.30;;;;;;;26.74;41.44;100871.69;6269252;22;20013;-96
2023/06/22 15:33:32;;;;;;;1.95;1.25;;;;;;;26.74;42.71;100869.84;6271368;22;20413;-96
2023/06/22 15:36:03;;;;;;;1.60;0.82;;;;;;;26.68;41.86;100878.53;6275318;22;20019;-96
2023/06/22 15:38:40;;;;;;;2.85;1.40;;;;;;;26.21;42.90;100871.72;6178839;22;20246;-96
2023/06/22 15:43:56;;;;;;;3.58;1.55;;;;;;;26.50;42.84;100875.41;6202082;22;20024;-95
2023/06/22 15:53:12;;;;;;;2.67;1.27;;;;;;;26.38;42.33;100889.06;6225913;22;20019;-96
2023/06/22 15:55:38;;;;;;;2.63;1.40;;;;;;;26.27;42.25;100881.59;6294564;22;20076;-96
2023/06/22 15:58:04;;;;;;;2.25;1.00;;;;;;;26.09;42.92;100889.00;6294683;22;20009;-96
2023/06/22 16:00:30;;;;;;;6.55;1.35;;;;;;;26.03;42.57;100885.28;6294089;22;19989;-96
2023/06/22 16:02:55;;;;;;;6.03;1.30;;;;;;;25.86;42.36;100886.41;6297056;22;20002;-96
2023/06/22 16:12:10;;;;;;;;;;;;;;;25.99;41.24;100883.97;6213187;22;21205;-96
2023/06/22 16:14:40;;;;;;;1.38;0.95;;;;;;;25.84;40.96;100882.06;6184177;23;19912;-96
2023/06/22 16:17:06;;;;;;;5.22;1.13;;;;;;;25.73;42.74;100884.34;6185384;23;20036;-96
2023/06/22 16:19:34;;;;;;;3.05;0.93;;;;;;;25.73;42.38;100889.63;6233204;22;20010;-96
2023/06/22 16:22:01;;;;;;;3.33;1.10;;;;;;;25.71;42.31;100881.84;6249395;22;20006;-96
2023/06/22 16:24:28;;;;;;;2.47;1.50;;;;;;;25.73;42.41;100884.34;6245619;23;20006;-96
2023/06/22 16:29:40;;;;;;;3.00;1.10;;;;;;;25.56;42.78;100883.63;6210175;23;20037;-96
2023/06/22 16:32:08;;;;;;;2.58;1.25;;;;;;;25.61;43.30;100887.38;6249150;23;20002;-96
2023/06/22 16:34:38;;;;;;;2.42;1.10;;;;;;;25.64;42.29;100883.56;6143833;23;20014;-96
2023/06/22 16:37:09;;;;;;;3.70;1.13;;;;;;;25.48;42.68;100887.13;6250418;23;20014;-96
2023/06/22 16:39:36;;;;;;;1.87;1.17;;;;;;;25.32;43.00;100892.53;6248292;23;20010;-96
2023/06/22 16:42:02;;;;;;;1.48;1.10;;;;;;;25.38;43.07;100903.19;6145019;23;20228;-96
2023/06/22 16:44:31;;;;;;;1.73;1.10;;;;;;;25.42;43.83;100901.03;6247700;23;19990;-96
2023/06/22 16:47:02;;;;;;;2.63;1.02;;;;;;;25.28;43.40;100897.31;6245386;23;20020;-96
2023/06/22 16:49:29;;;;;;;1.58;0.82;;;;;;;25.11;43.55;100901.00;6248060;23;20016;-96
2023/06/22 16:51:56;;;;;;;3.40;1.65;;;;;;;24.87;44.03;100907.19;6216592;23;20125;-96
2023/06/22 16:54:22;;;;;;;1.50;1.00;;;;;;;24.84;44.34;100904.91;6236435;23;20025;-96
2023/06/22 16:56:47;;;;;;;3.85;1.10;;;;;;;24.66;45.34;100908.59;6234113;23;20392;-96
2023/06/22 16:59:14;;;;;;;1.52;1.10;;;;;;;24.61;45.50;100910.91;6231714;23;20002;-96
2023/06/22 17:01:51;;;;;;;3.28;1.80;;;;;;;24.81;45.31;100921.09;6231775;23;20006;-96
2023/06/22 17:04:23;;;;;;;2.67;1.38;;;;;;;24.76;46.15;100925.06;6232006;23;20006;-96
2023/06/22 17:06:57;;;;;;;8.18;3.10;;;;;;;24.68;46.74;100919.81;6230596;23;20010;-95
2023/06/22 17:09:26;;;;;;;2.38;1.45;;;;;;;24.73;47.32;100917.47;6256858;22;20023;-96
2023/06/22 17:11:53;;;;;;;4.45;1.30;;;;;;;24.60;47.17;100911.06;6230371;23;20010;-96
2023/06/22 17:14:18;;;;;;;5.00;1.48;;;;;;;24.58;48.65;100916.53;6228456;23;20006;-96
2023/06/22 17:16:46;;;;;;;1.35;1.10;;;;;;;24.88;48.13;100916.78;6228576;23;20006;-96
2023/06/22 17:19:13;;;;;;;3.47;1.35;;;;;;;25.09;47.54;100911.75;6229349;23;20031;-96
2023/06/22 17:21:41;;;;;;;2.35;1.23;;;;;;;24.98;47.05;100910.28;6230907;23;20006;-96
2023/06/22 17:24:06;;;;;;;4.50;1.52;;;;;;;25.17;46.37;100917.03;6229776;23;20014;-92
2023/06/22 17:26:32;;;;;;;4.10;1.58;;;;;;;25.19;47.32;100919.50;6226028;23;20326;-93
2023/06/22 17:29:03;;;;;;;2.17;1.55;;;;;;;25.12;46.94;100914.03;6123692;22;20012;-92
2023/06/22 17:31:40;;;;;;;4.20;1.20;;;;;;;25.17;46.78;100926.78;6124505;23;20077;-91
2023/06/22 17:34:14;;;;;;;6.15;1.67;;;;;;;25.12;46.83;100924.63;6123969;22;20002;-92
2023/06/22 17:36:50;;;;;;;2.25;1.65;;;;;;;24.87;47.48;100925.69;6124360;22;20006;-93
2023/06/22 17:39:20;;;;;;;3.30;1.48;;;;;;;24.76;48.27;100925.06;6124277;23;19998;-93
2023/06/22 17:41:47;;;;;;;4.20;2.00;;;;;;;24.70;48.65;100928.38;6251515;22;20002;-93
2023/06/22 17:44:17;;;;;;;5.65;1.90;;;;;;;24.58;48.66;100928.88;6227275;23;20013;-92
2023/06/22 17:46:43;;;;;;;3.35;1.80;;;;;;;24.48;47.77;100932.53;6226040;23;20454;-93
2023/06/22 17:49:12;;;;;;;2.33;1.40;;;;;;;24.47;48.31;100936.16;6124225;22;19998;-93
2023/06/22 17:51:41;;;;;;;2.90;1.73;;;;;;;24.29;49.79;100938.13;6123966;22;20006;-93
2023/06/22 17:54:07;;;;;;;5.88;1.60;;;;;;;24.27;49.38;100940.94;6124551;22;20077;-92
2023/06/22 17:56:33;;;;;;;3.53;1.80;;;;;;;24.31;49.41;100936.97;6226410;23;20006;-92
2023/06/22 17:58:59;;;;;;;4.55;1.77;;;;;;;24.27;49.53;100940.94;6123780;22;20408;-93
2023/06/22 18:01:38;;;;;;;7.53;1.80;;;;;;;24.02;50.87;100941.91;6130188;22;20079;-94
2023/06/22 18:04:08;;;;;;;4.63;3.13;;;;;;;24.03;52.00;100948.84;6130362;23;20013;-92
2023/06/22 18:06:39;;;;;;;8.00;2.50;;;;;;;23.91;53.34;100951.78;6231516;23;20010;-92
2023/06/22 18:09:05;;;;;;;2.80;2.03;;;;;;;23.91;53.65;100951.78;6124201;22;20002;-91
2023/06/22 18:11:33;;;;;;;7.25;1.85;;;;;;;23.97;53.19;100952.13;6123624;23;20077;-91
2023/06/22 18:14:03;;;;;;;12.18;2.15;;;;;;;23.84;54.44;100950.78;6225288;23;20486;-92
2023/06/22 18:16:30;;;;;;;2.42;1.60;;;;;;;23.73;53.75;100951.09;6225546;23;20340;-91
2023/06/22 18:18:58;;;;;;;3.20;1.98;;;;;;;23.64;54.02;100959.94;6225800;23;20052;-90
2023/06/22 18:21:24;;;;;;;7.10;2.25;;;;;;;23.60;53.65;100958.59;6123777;22;20036;-91
2023/06/22 18:23:51;;;;;;;4.82;1.90;;;;;;;23.57;53.43;100966.84;6225664;23;20028;-91
2023/06/22 18:26:19;;;;;;;3.33;1.92;;;;;;;23.46;53.48;100963.50;6123746;23;20661;-92
2023/06/22 18:28:45;;;;;;;4.63;2.15;;;;;;;23.34;54.17;100963.97;6123973;22;20409;-91
2023/06/22 18:31:12;;;;;;;2.58;1.90;;;;;;;23.28;53.82;100968.03;6225376;23;20089;-90
2023/06/22 18:33:39;;;;;;;4.70;1.98;;;;;;;23.06;54.50;100974.69;6225439;23;20010;-92
2023/06/22 18:36:05;;;;;;;4.20;1.70;;;;;;;22.89;55.51;100976.38;6123592;22;20016;-92
2023/06/22 18:38:31;;;;;;;4.30;2.13;;;;;;;22.97;55.99;100972.94;6123955;22;19998;-92
2023/06/22 18:40:58;;;;;;;5.30;1.70;;;;;;;22.96;57.33;100969.50;6123960;22;20010;-92
2023/06/22 18:43:24;;;;;;;3.80;1.98;;;;;;;22.99;57.72;100971.84;6123440;23;20306;-91
2023/06/22 18:45:49;;;;;;;3.95;2.05;;;;;;;22.81;58.71;100968.44;6123831;23;20034;-92
2023/06/22 18:48:24;;;;;;;3.97;2.05;;;;;;;22.61;57.74;100968.63;6224455;23;20008;-92
2023/06/22 18:50:49;;;;;;;5.63;2.00;;;;;;;22.65;57.57;100974.41;6122823;22;20479;-92
2023/06/22 18:53:25;;;;;;;5.30;2.40;;;;;;;22.60;59.32;100977.47;6123576;22;20002;-92
2023/06/22 18:55:51;;;;;;;5.00;2.42;;;;;;;22.53;59.95;100979.09;6225525;23;20401;-94
2023/06/22 18:58:22;;;;;;;3.22;2.08;;;;;;;22.33;60.10;100972.34;6225068;23;20429;-92
2023/06/22 19:00:53;;;;;;;4.07;2.33;;;;;;;22.27;60.84;100978.22;6124220;22;20037;-94
2023/06/22 19:03:29;;;;;;;5.90;2.30;;;;;;;22.20;60.35;100984.06;6225508;23;20013;-93
2023/06/22 19:05:55;;;;;;;3.50;2.33;;;;;;;22.09;61.19;100986.88;6123826;22;20064;-92
2023/06/22 19:08:22;;;;;;;6.25;2.58;;;;;;;22.05;61.31;100982.94;6124318;22;19998;-91
2023/06/22 19:10:47;;;;;;;5.43;2.80;;;;;;;21.89;62.04;100993.25;6251055;22;20038;-93
2023/06/22 19:13:16;;;;;;;5.10;2.40;;;;;;;21.63;63.65;101001.00;6225965;23;20033;-93
2023/06/22 19:15:43;;;;;;;3.90;2.42;;;;;;;21.80;62.58;101008.13;6224731;23;20310;-94
2023/06/22 19:18:16;;;;;;;5.82;2.58;;;;;;;21.61;63.11;101011.69;6123391;22;20006;-91
2023/06/22 19:20:41;;;;;;;4.90;2.53;;;;;;;21.52;64.51;101004.69;6123222;22;19998;-92
2023/06/22 19:23:33;;;;;;;3.63;2.47;;;;;;;21.48;64.17;101011.19;6224967;23;20014;-92
2023/06/22 19:26:00;;;;;;;3.55;2.53;;;;;;;21.46;64.30;101010.50;6123229;23;20077;-92
2023/06/22 19:28:29;;;;;;;3.88;2.92;;;;;;;21.38;64.84;101017.28;6123539;22;20006;-92
2023/06/22 19:30:57;;;;;;;4.38;3.00;;;;;;;21.55;63.66;101014.88;6123509;22;20421;-93
2023/06/22 19:33:25;;;;;;;6.40;2.40;;;;;;;21.40;63.83;101025.03;6225107;23;20006;-93
2023/06/22 19:35:52;;;;;;;6.43;2.88;;;;;;;21.29;62.79;101020.78;6224920;23;20386;-93
2023/06/22 19:38:18;;;;;;;7.63;2.95;;;;;;;21.37;61.65;101023.50;6250676;22;20002;-93
2023/06/22 19:40:45;;;;;;;6.68;2.30;;;;;;;21.25;61.50;101029.06;6123796;22;20335;-94
2023/06/22 19:43:16;;;;;;;8.05;2.80;;;;;;;21.23;60.89;101033.63;6225163;23;20006;-93
2023/06/22 19:45:42;;;;;;;4.35;2.63;;;;;;;21.26;61.36;101028.91;6225397;23;20009;-93
2023/06/22 19:48:09;;;;;;;3.22;2.80;;;;;;;21.22;61.66;101037.25;6224996;23;20085;-94
2023/06/22 19:50:38;;;;;;;3.00;2.67;;;;;;;21.06;62.39;101032.56;6225005;23;20037;-93
2023/06/22 19:53:07;;;;;;;5.85;2.55;;;;;;;20.91;63.93;101038.25;6123620;23;20048;-92
2023/06/22 19:55:33;;;;;;;4.28;2.80;;;;;;;20.86;64.06;101040.47;6123402;22;20044;-94
2023/06/22 19:57:58;;;;;;;5.47;2.67;;;;;;;20.92;63.31;101047.81;6122628;23;20375;-92
2023/06/22 20:00:23;;;;;;;3.25;2.50;;;;;;;20.77;63.46;101048.38;6123305;23;20001;-93
2023/06/22 20:02:52;;;;;;;4.93;3.00;;;;;;;20.76;62.88;101047.53;6224792;23;20006;-92
2023/06/22 20:05:20;;;;;;;4.93;2.78;;;;;;;20.77;63.61;101053.63;6122770;23;20076;-90
2023/06/22 20:07:45;;;;;;;5.38;3.00;;;;;;;20.77;63.79;101054.44;6122925;22;20059;-94
2023/06/22 20:10:18;;;;;;;7.10;2.85;;;;;;;20.75;64.24;101061.63;6225062;23;20010;-93
2023/06/22 20:12:50;;;;;;;5.30;3.17;;;;;;;20.56;65.27;101059.00;6224761;23;20010;-94
2023/06/22 20:15:21;;;;;;;7.72;3.15;;;;;;;20.53;64.96;101058.28;6224779;23;20014;-92
2023/06/22 20:18:04;;;;;;;6.97;3.20;;;;;;;20.47;65.15;101053.59;6123187;22;20089;-93
2023/06/22 20:20:34;;;;;;;9.23;4.93;;;;;;;20.40;65.53;101062.13;6122954;23;20002;-89
2023/06/22 20:23:01;;;;;;;3.85;2.95;;;;;;;20.23;66.06;101058.41;6124044;22;20006;-93
2023/06/22 20:54:45;;;;;;;;;;;;;;;;;;;;;
2023/06/22 20:57:51;;;;;;;;;;;;;;;;;;;;;
2023/06/22 21:16:34;;;;;;;5.63;3.30;;;;;;;19.19;71.61;101110.03;6137783;23;20029;-96
2023/06/22 21:18:59;;;;;;;5.03;3.90;;;;;;;19.03;72.50;101106.06;6135681;23;20018;-94
2023/06/22 21:21:25;;;;;;;5.47;3.40;;;;;;;18.90;73.00;101115.91;6133472;23;19986;-95
2023/06/22 21:27:38;;;;;;;5.50;3.38;;;;;;;18.81;73.23;101114.03;6168825;23;20056;-95
2023/06/22 21:30:05;;;;;;;5.32;3.78;;;;;;;18.68;73.53;101108.94;6131900;23;20009;-96
2023/06/22 21:32:46;;;;;;;5.03;3.22;;;;;;;18.61;74.35;101118.22;6191291;23;20002;-96
2023/06/22 21:37:46;;;;;;;8.98;4.35;;;;;;;18.51;75.17;101112.09;6147488;23;20017;-96
2023/06/22 21:40:12;;;;;;;5.75;3.38;;;;;;;18.53;75.27;101123.22;6238472;23;20006;-95
2023/06/22 21:42:37;;;;;;;4.55;3.65;;;;;;;18.63;75.10;101120.72;6123798;23;20006;-93
2023/06/22 21:45:03;;;;;;;7.97;3.72;;;;;;;18.53;75.72;101113.63;6226686;23;20393;-95
2023/06/22 21:47:28;;;;;;;6.55;3.60;;;;;;;18.48;76.09;101117.53;6124357;23;20341;-94
2023/06/22 21:49:54;;;;;;;5.93;3.58;;;;;;;18.35;76.33;101108.06;6225959;23;20014;-94
2023/06/22 21:52:20;;;;;;;6.25;3.70;;;;;;;18.30;76.83;101104.16;6226144;23;20005;-92
2023/06/22 21:54:45;;;;;;;5.72;3.53;;;;;;;18.22;77.65;101096.94;6123879;23;20006;-92
2023/06/22 21:57:11;;;;;;;3.95;3.38;;;;;;;18.15;77.93;101099.19;6226322;23;20085;-96
2023/06/22 21:59:37;;;;;;;6.18;3.85;;;;;;;18.10;78.88;101110.97;6231440;23;20368;-95
2023/06/22 22:02:03;;;;;;;5.75;3.50;;;;;;;18.04;79.33;101103.59;6227793;23;20020;-95
2023/06/22 22:04:28;;;;;;;5.30;3.45;;;;;;;17.98;79.71;101111.94;6227790;23;20006;-92
2023/06/22 22:06:54;;;;;;;5.85;3.70;;;;;;;17.99;79.59;101101.34;6227942;23;20013;-94
2023/06/22 22:09:21;;;;;;;9.18;3.90;;;;;;;17.94;79.84;101104.31;6227294;23;20096;-94
2023/06/22 22:11:47;;;;;;;7.57;3.70;;;;;;;17.90;80.94;101108.13;6126028;23;20005;-95
2023/06/22 22:14:13;;;;;;;4.65;3.58;;;;;;;17.75;81.30;101114.50;6227873;23;20039;-96
2023/06/22 22:16:39;;;;;;;8.30;4.57;;;;;;;17.71;81.72;101105.25;6124921;23;20022;-94
2023/06/22 22:19:06;;;;;;;7.35;3.45;;;;;;;17.75;81.76;101104.03;6228830;23;20463;-92
2023/06/22 22:21:32;;;;;;;6.55;4.03;;;;;;;17.66;81.74;101102.16;6248773;23;20006;-92
2023/06/22 22:23:58;;;;;;;7.28;4.35;;;;;;;17.64;82.58;101096.22;6246371;23;20025;-93
2023/06/22 22:26:24;;;;;;;5.40;3.92;;;;;;;17.69;83.37;101099.31;6240847;23;20065;-91
2023/06/22 22:28:50;;;;;;;4.80;3.63;;;;;;;17.50;84.56;101099.88;6241404;23;20030;-92
2023/06/22 22:31:15;;;;;;;5.93;4.10;;;;;;;17.44;84.92;101095.13;6138326;23;20013;-92
2023/06/22 22:33:42;;;;;;;4.47;3.30;;;;;;;17.39;84.89;101103.31;6137879;23;20013;-90
2023/06/22 22:36:07;;;;;;;6.00;3.85;;;;;;;17.36;84.39;101097.47;6137016;23;20014;-92
2023/06/22 22:38:34;;;;;;;6.20;4.20;;;;;;;17.28;84.77;101103.28;6232318;23;20010;-92
2023/06/22 22:41:00;;;;;;;4.75;3.50;;;;;;;17.28;85.54;101100.66;6238958;23;20017;-91
2023/06/22 22:43:25;;;;;;;5.22;3.72;;;;;;;17.20;85.80;101108.25;6238829;23;20034;-91
2023/06/22 22:45:51;;;;;;;4.90;3.95;;;;;;;17.14;86.78;101114.72;6236555;23;20013;-91
2023/06/22 22:48:17;;;;;;;6.28;3.95;;;;;;;17.16;87.25;101096.38;6136172;23;20077;-92
2023/06/22 22:50:43;;;;;;;6.88;4.00;;;;;;;17.07;87.49;101103.94;6237181;23;20014;-93
2023/06/22 22:53:08;;;;;;;6.18;4.50;;;;;;;16.97;88.61;101112.56;6243055;23;20060;-92
2023/06/22 22:55:35;;;;;;;5.68;4.03;;;;;;;16.87;89.21;101113.25;6136829;23;20089;-92
2023/06/22 22:58:01;;;;;;;6.18;3.92;;;;;;;16.89;89.54;101116.56;6235381;23;20002;-92
2023/06/22 23:00:27;;;;;;;6.68;4.10;;;;;;;16.84;89.60;101121.28;6137371;23;20051;-92
2023/06/22 23:02:52;;;;;;;6.22;4.10;;;;;;;16.89;89.56;101113.94;6238357;23;20065;-92
2023/06/22 23:05:19;;;;;;;4.72;4.25;;;;;;;16.74;90.13;101122.84;6134436;23;20032;-92
2023/06/22 23:07:45;;;;;;;4.25;3.83;;;;;;;16.66;91.46;101114.78;6237969;23;20490;-92
2023/06/22 23:10:12;;;;;;;6.47;4.28;;;;;;;16.64;91.94;101125.28;6136885;23;19998;-93
2023/06/22 23:12:37;;;;;;;7.10;4.55;;;;;;;16.75;91.14;101127.13;6230494;23;20002;-93
2023/06/22 23:15:04;;;;;;;5.53;3.90;;;;;;;16.66;90.58;101126.03;6231818;23;20017;-92
2023/06/22 23:17:29;;;;;;;6.97;4.30;;;;;;;16.63;91.96;101136.69;6230028;23;20013;-94
2023/06/22 23:19:55;;;;;;;6.53;4.55;;;;;;;16.61;91.42;101142.94;6226402;23;19998;-92
2023/06/22 23:22:21;;;;;;;5.95;3.65;;;;;;;16.57;91.86;101146.69;6226196;23;20010;-93
2023/06/22 23:24:47;;;;;;;6.30;3.85;;;;;;;16.59;91.53;101134.41;6226631;23;20008;-94
2023/06/22 23:27:13;;;;;;;7.75;4.70;;;;;;;16.53;91.50;101146.06;6226617;23;20096;-93
2023/06/22 23:29:38;;;;;;;7.68;4.30;;;;;;;16.57;93.34;101146.69;6226660;22;20002;-93
2023/06/22 23:32:04;;;;;;;11.85;5.38;;;;;;;16.59;95.18;101147.44;6226799;23;20317;-95
2023/06/22 23:34:29;;;;;;;6.55;4.00;;;;;;;16.58;95.38;101136.19;6226859;23;20115;-94
2023/06/22 23:36:55;;;;;;;9.40;4.57;;;;;;;16.48;96.96;101128.19;6124522;23;20369;-93
2023/06/22 23:39:21;;;;;;;7.00;5.00;;;;;;;16.44;97.38;101136.31;6226018;23;20017;-94
2023/06/22 23:41:46;;;;;;;6.47;4.57;;;;;;;16.49;96.69;101144.66;6226147;23;20002;-94
2023/06/22 23:44:11;;;;;;;7.80;4.43;;;;;;;16.35;98.66;101140.41;6124438;23;20013;-93
2023/06/22 23:46:37;;;;;;;6.55;5.00;;;;;;;16.52;97.67;101136.59;6226625;23;20014;-93
2023/06/22 23:49:02;;;;;;;6.25;4.65;;;;;;;16.42;98.53;101143.41;6124148;23;20384;-93
2023/06/22 23:51:28;;;;;;;5.32;4.40;;;;;;;16.35;99.42;101137.78;6124595;23;20006;-91
2023/06/22 23:53:57;;;;;;;9.45;4.82;;;;;;;16.28;100.00;101141.78;6225859;23;20006;-92
2023/06/22 23:56:23;;;;;;;6.68;5.15;;;;;;;16.30;100.00;101149.50;6226288;23;20062;-95
2023/06/22 23:58:52;;;;;;;8.80;4.97;;;;;;;16.23;100.00;101159.50;6226348;23;20310;-93
